Terminal Aerodrome Forecast
Issued by NWS Jackson, MS

Home | Current Version | Previous Version | Text Only | Print | Product List | Glossary On
Versions: 1 2 3 4 5 6 7 8 9 10 11 12 13
000
FTUS44 KJAN 231120
TAFHBG
TAF
KHBG 231120Z 2312/2412 06001KT 6SM BR SKC
     FM231400 13005KT P6SM SCT040 SCT250
     FM240600 VRB03KT P6SM SCT015 BKN250
     FM240900 12003KT P6SM OVC015=

USA.gov is the U.S. government's official web portal to all federal, state and local government web resources and services.